createdAt,value
2022-08-12T00:02:43.659Z,98944.81
2022-08-12T00:05:28.777Z,98941.09
2022-08-12T00:08:16.131Z,98941.88
2022-08-12T00:11:12.497Z,98940.00
2022-08-12T00:13:57.611Z,98945.38
2022-08-12T00:16:47.834Z,98940.81
2022-08-12T00:19:33.347Z,98952.31
2022-08-12T00:22:18.762Z,98952.31
2022-08-12T00:25:04.622Z,98950.72
2022-08-12T00:27:49.975Z,98949.09
2022-08-12T00:30:35.487Z,98943.16
2022-08-12T00:33:20.678Z,98941.56
2022-08-12T00:36:32.135Z,98935.41
2022-08-12T00:39:15.891Z,98941.84
2022-08-12T00:42:01.072Z,98946.38
2022-08-12T00:44:27.657Z,98944.25
2022-08-12T00:46:56.699Z,98942.66
2022-08-12T00:49:24.038Z,98949.59
2022-08-12T00:52:07.312Z,98941.84
2022-08-12T00:54:44.665Z,98947.72
2022-08-12T00:57:17.260Z,98952.25
2022-08-12T00:59:49.561Z,98952.25
2022-08-12T01:02:23.823Z,98941.56
2022-08-12T01:05:20.074Z,98939.97
2022-08-12T01:08:05.494Z,98944.25
2022-08-12T01:10:52.913Z,98953.88
2022-08-12T01:13:20.508Z,98953.06
2022-08-12T01:15:57.746Z,98954.13
2022-08-12T01:18:29.085Z,98948.00
2022-08-12T01:21:23.186Z,98951.47
2022-08-12T01:24:30.254Z,98948.00
2022-08-12T01:26:55.048Z,98949.06
2022-08-12T01:29:28.651Z,98949.88
2022-08-12T01:32:00.189Z,98947.44
2022-08-12T01:34:36.870Z,98949.06
2022-08-12T01:37:04.901Z,98948.50
2022-08-12T01:40:34.099Z,98939.94
2022-08-12T01:42:46.273Z,98944.22
2022-08-12T01:45:12.942Z,98950.88
2022-08-12T01:47:51.529Z,98944.72
2022-08-12T01:50:46.254Z,98942.06
2022-08-12T01:53:13.315Z,98935.66
2022-08-12T01:55:41.782Z,98945.53
2022-08-12T01:58:27.024Z,98940.19
2022-08-12T02:00:59.166Z,98934.31
2022-08-12T02:04:09.979Z,98942.06
2022-08-12T02:07:03.545Z,98940.72
2022-08-12T02:10:05.697Z,98938.84
2022-08-12T02:12:49.168Z,98943.13
2022-08-12T02:15:24.925Z,98936.72
2022-08-12T02:18:05.034Z,98942.88
2022-08-12T02:20:52.118Z,98936.72
2022-08-12T02:23:19.509Z,98934.03
2022-08-12T02:25:46.442Z,98939.38
2022-08-12T02:28:13.001Z,98937.78
2022-08-12T02:30:41.698Z,98931.34
2022-08-12T02:33:08.967Z,98939.94
2022-08-12T02:35:36.026Z,98932.94
2022-08-12T02:38:05.358Z,98936.69
2022-08-12T02:40:32.845Z,98935.91
2022-08-12T02:43:12.364Z,98929.75
2022-08-12T02:45:47.933Z,98933.50
2022-08-12T02:48:17.342Z,98931.88
2022-08-12T02:50:46.340Z,98931.88
2022-08-12T02:53:13.696Z,98927.59
2022-08-12T02:55:40.478Z,98925.72
2022-08-12T02:58:12.170Z,98928.38
2022-08-12T03:00:41.331Z,98931.34
2022-08-12T03:03:09.141Z,98930.53
2022-08-12T03:05:45.027Z,98936.94
2022-08-12T03:08:14.331Z,98935.34
2022-08-12T03:11:04.340Z,98939.34
2022-08-12T03:13:33.775Z,98932.94
2022-08-12T03:16:00.354Z,98935.06
2022-08-12T03:18:31.275Z,98934.81
2022-08-12T03:20:58.675Z,98940.16
2022-08-12T03:23:30.089Z,98935.06
2022-08-12T03:26:02.412Z,98933.47
2022-08-12T03:28:49.557Z,98930.53
2022-08-12T03:31:20.224Z,98940.16
2022-08-12T03:34:00.707Z,98931.34
2022-08-12T03:36:29.802Z,98927.56
2022-08-12T03:39:17.363Z,98928.38
2022-08-12T03:41:50.034Z,98935.59
2022-08-12T03:45:04.738Z,98936.66
2022-08-12T03:47:51.556Z,98935.06
2022-08-12T03:50:36.996Z,98932.38
2022-08-12T03:53:22.865Z,98929.94
2022-08-12T03:56:07.731Z,98929.94
2022-08-12T03:58:52.868Z,98938.78
2022-08-12T04:01:27.987Z,98934.25
2022-08-12T04:03:54.924Z,98929.72
2022-08-12T04:06:34.979Z,98929.72
2022-08-12T04:09:02.655Z,98923.00
2022-08-12T04:11:48.306Z,98929.94
2022-08-12T04:14:19.678Z,98929.16
2022-08-12T04:16:49.031Z,98925.66
2022-08-12T04:19:15.888Z,98927.53
2022-08-12T04:22:02.429Z,98927.53
2022-08-12T04:24:34.920Z,98924.88
2022-08-12T04:27:02.313Z,98929.41
2022-08-12T04:30:17.118Z,98925.38
2022-08-12T04:32:15.742Z,98926.22
2022-08-12T04:34:44.017Z,98925.94
2022-08-12T04:37:12.526Z,98920.59
2022-08-12T04:39:39.373Z,98920.59
2022-08-12T04:42:06.317Z,98925.94
2022-08-12T04:44:32.807Z,98925.94
2022-08-12T04:46:59.292Z,98917.13
2022-08-12T04:49:25.776Z,98927.00
2022-08-12T04:51:54.594Z,98925.38
2022-08-12T04:54:27.147Z,98928.06
2022-08-12T04:57:04.869Z,98931.56
2022-08-12T04:59:48.215Z,98928.88
2022-08-12T05:02:37.945Z,98931.56
2022-08-12T05:05:05.204Z,98932.34
2022-08-12T05:07:31.966Z,98935.03
2022-08-12T05:10:00.311Z,98935.03
2022-08-12T05:12:34.014Z,98930.47
2022-08-12T05:15:00.652Z,98936.63
2022-08-12T05:17:28.298Z,98930.47
2022-08-12T05:19:57.083Z,98938.22
2022-08-12T05:22:24.679Z,98932.88
2022-08-12T05:24:51.176Z,98932.63
2022-08-12T05:27:18.114Z,98936.91
2022-08-12T05:30:07.087Z,98937.72
2022-08-12T05:32:36.049Z,98943.59
2022-08-12T05:35:06.264Z,98935.84
2022-08-12T05:37:35.734Z,98945.19
2022-08-12T05:40:08.253Z,98942.28
2022-08-12T05:42:37.293Z,98941.50
2022-08-12T05:45:04.098Z,98936.94
2022-08-12T05:47:30.893Z,98941.50
2022-08-12T05:50:17.154Z,98943.91
2022-08-12T05:52:44.049Z,98939.34
2022-08-12T05:55:11.703Z,98948.97
2022-08-12T05:57:38.967Z,98947.94
2022-08-12T06:00:06.244Z,98939.63
2022-08-12T06:02:32.765Z,98944.19
2022-08-12T06:05:00.544Z,98951.41
2022-08-12T06:07:40.740Z,98948.72
2022-08-12T06:10:13.698Z,98958.09
2022-08-12T06:12:40.336Z,98957.00
2022-08-12T06:15:08.121Z,98963.19
2022-08-12T06:17:35.210Z,98960.50
2022-08-12T06:20:27.624Z,98957.56
2022-08-12T06:22:50.821Z,98961.56
2022-08-12T06:25:21.876Z,98960.53
2022-08-12T06:28:07.345Z,98957.59
2022-08-12T06:30:39.618Z,98966.72
2022-08-12T06:33:18.622Z,98964.56
2022-08-12T06:35:50.233Z,98959.53
2022-08-12T06:38:21.389Z,98968.34
2022-08-12T06:41:08.653Z,98962.22
2022-08-12T06:44:04.852Z,98967.56
2022-08-12T06:46:22.768Z,98968.09
2022-08-12T06:48:56.343Z,98968.91
2022-08-12T06:51:32.235Z,98970.53
2022-08-12T06:53:59.648Z,98968.38
2022-08-12T06:56:45.818Z,98974.28
2022-08-12T06:59:14.144Z,98975.63
2022-08-12T07:01:40.686Z,98977.50
2022-08-12T07:04:35.944Z,98971.06
2022-08-12T07:07:05.635Z,98973.50
2022-08-12T07:10:04.583Z,98979.38
2022-08-12T07:12:19.901Z,98969.47
2022-08-12T07:14:51.536Z,98976.19
2022-08-12T07:17:18.359Z,98974.84
2022-08-12T07:19:46.766Z,98980.75
2022-08-12T07:22:14.154Z,98979.41
2022-08-12T07:24:41.117Z,98979.69
2022-08-12T07:27:07.655Z,98980.50
2022-08-12T07:29:58.099Z,98987.44
2022-08-12T07:32:24.370Z,98981.81
2022-08-12T07:34:51.000Z,98989.09
2022-08-12T07:37:17.821Z,98990.44
2022-08-12T07:39:50.744Z,98988.81
2022-08-12T07:42:26.651Z,98985.63
2022-08-12T07:44:53.218Z,98991.53
2022-08-12T07:47:19.714Z,98991.81
2022-08-12T07:50:04.220Z,98995.28
2022-08-12T07:52:34.191Z,98989.38
2022-08-12T07:55:00.695Z,98991.00
2022-08-12T07:57:27.183Z,98993.41
2022-08-12T07:59:55.788Z,98993.41
2022-08-12T08:02:26.770Z,98988.59
2022-08-12T08:04:56.714Z,98991.03
2022-08-12T08:07:23.783Z,98986.19
2022-08-12T08:09:50.598Z,98990.47
2022-08-12T08:12:44.036Z,98989.69
2022-08-12T08:15:11.137Z,98985.13
2022-08-12T08:17:38.291Z,98991.03
2022-08-12T08:20:06.160Z,98991.03
2022-08-12T08:22:41.471Z,98987.88
2022-08-12T08:25:20.126Z,98988.94
2022-08-12T08:27:55.295Z,98993.47
2022-08-12T08:30:21.792Z,98988.94
2022-08-12T08:32:48.722Z,98994.31
2022-08-12T08:35:15.282Z,98990.56
2022-08-12T08:37:46.170Z,98991.38
2022-08-12T08:40:33.244Z,98991.09
2022-08-12T08:42:59.767Z,98987.59
2022-08-12T08:45:27.631Z,98986.28
2022-08-12T08:47:57.234Z,98997.25
2022-08-12T08:50:27.112Z,98994.84
2022-08-12T08:52:53.598Z,98989.50
2022-08-12T08:55:27.419Z,98987.38
2022-08-12T08:58:00.004Z,98984.41
2022-08-12T09:00:26.599Z,98982.00
2022-08-12T09:02:59.225Z,98993.78
2022-08-12T09:05:27.235Z,98981.72
2022-08-12T09:08:09.013Z,98984.13
2022-08-12T09:10:45.340Z,98976.91
2022-08-12T09:13:29.276Z,98972.63
2022-08-12T09:16:14.880Z,98973.97
2022-08-12T09:18:42.231Z,98969.69
2022-08-12T09:21:10.975Z,98972.09
2022-08-12T09:23:59.228Z,98966.22
2022-08-12T09:26:28.724Z,98968.63
2022-08-12T09:28:56.173Z,98969.69
2022-08-12T09:32:03.585Z,98971.03
2022-08-12T09:34:29.554Z,98963.78
2022-08-12T09:37:01.446Z,98964.06
2022-08-12T09:40:03.241Z,98961.09
2022-08-12T09:42:42.949Z,98966.47
2022-08-12T09:45:23.532Z,98957.63
2022-08-12T09:47:59.547Z,98953.63
2022-08-12T09:50:27.009Z,98955.22
2022-08-12T09:53:16.155Z,98958.41
2022-08-12T09:56:06.595Z,98942.34
2022-08-12T09:58:57.900Z,98951.44
2022-08-12T10:01:23.448Z,98943.69
2022-08-12T10:04:03.618Z,98941.28
2022-08-12T10:06:35.911Z,98932.44
2022-08-12T10:09:08.338Z,98937.00
2022-08-12T10:12:11.888Z,98936.72
2022-08-12T10:14:40.705Z,98931.34
2022-08-12T10:17:21.762Z,98925.72
2022-08-12T10:19:51.739Z,98924.63
2022-08-12T10:22:49.323Z,98913.41
2022-08-12T10:26:34.465Z,98911.25
2022-08-12T10:28:30.481Z,98903.75
2022-08-12T10:30:58.962Z,98902.94
2022-08-12T10:33:31.619Z,98900.28
2022-08-12T10:36:00.346Z,98905.34
2022-08-12T10:38:34.468Z,98901.34
2022-08-12T10:41:57.994Z,98895.97
2022-08-12T10:44:16.771Z,98877.78
2022-08-12T10:46:45.922Z,98897.59
2022-08-12T10:50:02.357Z,98892.50
2022-08-12T10:52:34.082Z,98891.44
2022-08-12T10:54:51.059Z,98893.31
2022-08-12T10:57:18.461Z,98900.00
2022-08-12T11:00:35.147Z,98886.88
2022-08-12T11:04:25.695Z,98895.19
2022-08-12T11:07:03.368Z,98872.09
2022-08-12T11:08:38.022Z,98879.91
2022-08-12T11:11:13.991Z,98878.00
2022-08-12T11:13:46.745Z,98879.63
2022-08-12T11:16:22.450Z,98876.13
2022-08-12T11:18:55.117Z,98887.66
2022-08-12T11:21:51.426Z,98869.69
2022-08-12T11:24:30.753Z,98858.16
2022-08-12T11:29:25.048Z,98874.25
2022-08-12T11:32:02.023Z,98868.09
2022-08-12T11:34:52.397Z,98865.13
2022-08-12T11:37:26.438Z,98858.16
2022-08-12T11:42:34.666Z,98845.31
2022-08-12T11:45:01.555Z,98847.44
2022-08-12T11:47:28.057Z,98853.06
2022-08-12T11:49:54.573Z,98843.06
2022-08-12T11:52:53.882Z,98843.91
2022-08-12T11:55:08.776Z,98827.56
2022-08-12T11:58:07.222Z,98827.97
2022-08-12T12:03:45.984Z,98811.19
2022-08-12T12:06:17.541Z,98823.03
2022-08-12T12:08:48.413Z,98832.91
2022-08-12T12:11:17.765Z,98823.56
2022-08-12T12:14:08.100Z,98822.19
2022-08-12T12:16:30.876Z,98830.78
2022-08-12T12:18:59.759Z,98814.97
2022-08-12T12:21:48.017Z,98828.38
2022-08-12T12:24:12.847Z,98814.69
2022-08-12T12:26:39.342Z,98816.59
2022-08-12T12:29:11.207Z,98806.94
2022-08-12T12:32:09.014Z,98802.97
2022-08-12T12:34:38.100Z,98810.44
2022-08-12T12:37:04.924Z,98817.16
2022-08-12T12:39:55.423Z,98810.97
2022-08-12T12:42:43.351Z,98809.09
2022-08-12T12:45:19.418Z,98810.97
2022-08-12T12:48:00.241Z,98805.63
2022-08-12T12:50:35.809Z,98805.09
2022-08-12T12:53:09.033Z,98808.81
2022-08-12T12:55:55.534Z,98802.41
2022-08-12T12:58:22.032Z,98800.81
2022-08-12T13:00:51.124Z,98813.66
2022-08-12T13:03:19.308Z,98808.31
2022-08-12T13:05:53.998Z,98806.16
2022-08-12T13:08:28.222Z,98804.56
2022-08-12T13:11:03.974Z,98793.56
2022-08-12T13:14:06.973Z,98792.75
2022-08-12T13:16:23.004Z,98790.34
2022-08-12T13:18:50.270Z,98797.31
2022-08-12T13:21:36.314Z,98802.44
2022-08-12T13:24:10.444Z,98792.75
2022-08-12T13:26:39.869Z,98791.16
2022-08-12T13:29:06.397Z,98796.53
2022-08-12T13:32:17.427Z,98795.47
2022-08-12T13:34:32.796Z,98790.09
2022-08-12T13:37:00.624Z,98779.94
2022-08-12T13:39:30.129Z,98792.78
2022-08-12T13:41:56.676Z,98789.03
2022-08-12T13:44:26.234Z,98785.84
2022-08-12T13:46:58.554Z,98781.56
2022-08-12T13:49:54.104Z,98786.63
2022-08-12T13:52:13.810Z,98777.53
2022-08-12T13:54:40.459Z,98774.59
2022-08-12T13:57:10.959Z,98771.09
2022-08-12T13:59:48.223Z,98762.53
2022-08-12T14:02:22.713Z,98766.00
2022-08-12T14:04:56.566Z,98775.13
2022-08-12T14:07:23.628Z,98769.19
2022-08-12T14:10:12.582Z,98772.72
2022-08-12T14:12:54.600Z,98768.41
2022-08-12T14:15:36.958Z,98775.38
2022-08-12T14:18:10.151Z,98767.88
2022-08-12T14:20:39.727Z,98772.72
2022-08-12T14:23:57.030Z,98769.22
2022-08-12T14:25:53.347Z,98758.78
2022-08-12T14:28:23.241Z,98764.44
2022-08-12T14:30:59.994Z,98765.78
2022-08-12T14:33:29.297Z,98758.28
2022-08-12T14:36:11.706Z,98760.16
2022-08-12T14:38:41.070Z,98763.09
2022-08-12T14:41:11.120Z,98757.72
2022-08-12T14:43:44.475Z,98757.22
2022-08-12T14:46:24.715Z,98758.00
2022-08-12T14:48:54.435Z,98756.41
2022-08-12T14:52:42.711Z,98745.69
2022-08-12T14:57:19.422Z,98751.84
2022-08-12T15:00:03.460Z,98744.63
2022-08-12T15:02:30.004Z,98744.63
2022-08-12T15:04:59.504Z,98738.47
2022-08-12T15:07:33.594Z,98744.63
2022-08-12T15:10:11.011Z,98744.91
2022-08-12T15:12:40.468Z,98744.06
2022-08-12T15:15:08.808Z,98745.69
2022-08-12T15:17:52.469Z,98734.19
2022-08-12T15:20:37.301Z,98734.47
2022-08-12T15:23:17.874Z,98731.78
2022-08-12T15:25:48.041Z,98739.28
2022-08-12T15:28:21.541Z,98737.69
2022-08-12T15:30:49.172Z,98735.25
2022-08-12T15:33:18.886Z,98741.41
2022-08-12T15:35:50.205Z,98736.34
2022-08-12T15:38:20.413Z,98745.47
2022-08-12T15:40:49.477Z,98742.78
2022-08-12T15:43:51.108Z,98737.69
2022-08-12T15:46:04.629Z,98732.31
2022-08-12T15:48:34.133Z,98737.69
2022-08-12T15:51:03.134Z,98732.31
2022-08-12T15:53:53.198Z,98728.59
2022-08-12T15:56:29.333Z,98732.31
2022-08-12T15:58:58.212Z,98730.72
2022-08-12T16:01:25.102Z,98728.34
2022-08-12T16:04:01.746Z,98723.50
2022-08-12T16:06:50.894Z,98721.91
2022-08-12T16:09:21.324Z,98722.97
2022-08-12T16:11:48.337Z,98713.06
2022-08-12T16:14:16.212Z,98719.50
2022-08-12T16:16:43.863Z,98722.19
2022-08-12T16:20:01.634Z,98724.84
2022-08-12T16:22:04.895Z,98726.75
2022-08-12T16:24:34.004Z,98727.00
2022-08-12T16:27:05.268Z,98717.66
2022-08-12T16:29:38.668Z,98719.25
2022-08-12T16:32:21.059Z,98716.56
2022-08-12T16:34:55.518Z,98707.72
2022-08-12T16:37:22.703Z,98720.84
2022-08-12T16:40:09.752Z,98713.88
2022-08-12T16:42:39.428Z,98711.22
2022-08-12T16:45:10.372Z,98708.53
2022-08-12T16:47:58.075Z,98697.03
2022-08-12T16:50:30.838Z,98703.44
2022-08-12T16:53:02.526Z,98695.41
2022-08-12T16:55:42.509Z,98699.97
2022-08-12T16:58:18.683Z,98698.09
2022-08-12T17:00:55.292Z,98698.91
2022-08-12T17:03:23.944Z,98689.00
2022-08-12T17:05:56.197Z,98694.06
2022-08-12T17:08:29.117Z,98701.84
2022-08-12T17:10:56.037Z,98696.75
2022-08-12T17:13:26.067Z,98699.44
2022-08-12T17:16:04.982Z,98697.84
2022-08-12T17:18:42.531Z,98700.50
2022-08-12T17:21:11.884Z,98695.44
2022-08-12T17:23:48.644Z,98700.00
2022-08-12T17:26:22.153Z,98695.69
2022-08-12T17:28:52.186Z,98688.47
2022-08-12T17:31:19.056Z,98693.03
2022-08-12T17:34:06.013Z,98695.97
2022-08-12T17:36:44.012Z,98695.97
2022-08-12T17:39:15.726Z,98698.66
2022-08-12T17:41:56.251Z,98693.59
2022-08-12T17:44:24.327Z,98695.47
2022-08-12T17:46:53.795Z,98698.94
2022-08-12T17:50:03.221Z,98700.00
2022-08-12T17:52:08.172Z,98700.81
2022-08-12T17:54:36.737Z,98708.03
2022-08-12T17:57:16.396Z,98712.59
2022-08-12T17:59:48.710Z,98707.22
2022-08-12T18:02:17.220Z,98702.94
2022-08-12T18:05:04.764Z,98705.63
2022-08-12T18:07:32.313Z,98711.00
2022-08-12T18:10:02.561Z,98713.94
2022-08-12T18:12:51.044Z,98712.88
2022-08-12T18:15:26.773Z,98714.75
2022-08-12T18:18:06.119Z,98717.44
2022-08-12T18:20:45.032Z,98730.00
2022-08-12T18:23:11.736Z,98716.09
2022-08-12T18:26:13.144Z,98714.47
2022-08-12T18:28:43.435Z,98718.75
2022-08-12T18:31:13.939Z,98717.97
2022-08-12T18:33:45.962Z,98719.56
2022-08-12T18:36:13.405Z,98728.94
2022-08-12T18:38:40.198Z,98731.13
2022-08-12T18:41:30.581Z,98733.50
2022-08-12T18:44:11.428Z,98732.97
2022-08-12T18:46:48.674Z,98730.56
2022-08-12T18:49:29.665Z,98737.00
2022-08-12T18:52:02.409Z,98734.03
2022-08-12T18:54:34.242Z,98732.16
2022-08-12T18:57:01.818Z,98732.44
2022-08-12T19:00:01.084Z,98742.06
2022-08-12T19:02:22.667Z,98743.94
2022-08-12T19:04:53.139Z,98745.84
2022-08-12T19:07:22.007Z,98745.03
2022-08-12T19:09:58.488Z,98744.25
2022-08-12T19:12:55.419Z,98748.78
2022-08-12T19:15:25.593Z,98752.81
2022-08-12T19:18:01.302Z,98761.13
2022-08-12T19:20:29.946Z,98759.22
2022-08-12T19:23:00.007Z,98759.22
2022-08-12T19:25:59.529Z,98752.81
2022-08-12T19:28:29.817Z,98757.09
2022-08-12T19:31:19.392Z,98757.09
2022-08-12T19:34:06.284Z,98761.66
2022-08-12T19:36:34.612Z,98760.03
2022-08-12T19:39:02.956Z,98765.41
2022-08-12T19:42:01.035Z,98759.50
2022-08-12T19:44:28.833Z,98766.72
2022-08-12T19:46:55.787Z,98771.56
2022-08-12T19:49:23.039Z,98770.47
2022-08-12T19:51:49.640Z,98761.66
2022-08-12T19:54:22.635Z,98761.66
2022-08-12T19:56:53.915Z,98765.13
2022-08-12T19:59:42.990Z,98761.91
2022-08-12T20:02:32.760Z,98771.25
2022-08-12T20:06:03.892Z,98774.22
2022-08-12T20:07:56.851Z,98774.75
2022-08-12T20:10:35.366Z,98773.72
2022-08-12T20:13:19.167Z,98773.94
2022-08-12T20:15:51.090Z,98778.47
2022-08-12T20:18:44.345Z,98783.84
2022-08-12T20:21:14.878Z,98781.44
2022-08-12T20:24:00.589Z,98783.84
2022-08-12T20:26:27.621Z,98783.56
2022-08-12T20:28:54.837Z,98783.56
2022-08-12T20:31:21.379Z,98788.13
2022-08-12T20:33:56.526Z,98793.47
2022-08-12T20:36:41.363Z,98783.06
2022-08-12T20:39:37.394Z,98789.19
2022-08-12T20:41:58.883Z,98781.69
2022-08-12T20:44:30.345Z,98787.88
2022-08-12T20:46:58.299Z,98784.13
2022-08-12T20:49:25.082Z,98785.22
2022-08-12T20:51:56.214Z,98787.88
2022-08-12T20:54:22.904Z,98791.09
2022-08-12T20:57:08.743Z,98787.31
2022-08-12T20:59:38.648Z,98787.59
2022-08-12T21:02:14.873Z,98786.53
2022-08-12T21:05:00.030Z,98782.78
2022-08-12T21:07:27.476Z,98791.88
2022-08-12T21:10:00.892Z,98778.50
2022-08-12T21:12:32.893Z,98786.53
2022-08-12T21:15:23.707Z,98786.00
2022-08-12T21:18:11.741Z,98786.25
2022-08-12T21:20:50.038Z,98785.47
2022-08-12T21:23:19.177Z,98790.00
2022-08-12T21:25:46.058Z,98787.63
2022-08-12T21:28:17.233Z,98788.69
2022-08-12T21:31:11.780Z,98791.09
2022-08-12T21:33:31.912Z,98794.03
2022-08-12T21:36:00.885Z,98792.41
2022-08-12T21:38:34.796Z,98790.81
2022-08-12T21:41:08.996Z,98793.78
2022-08-12T21:43:44.610Z,98796.69
2022-08-12T21:46:33.951Z,98791.34
2022-08-12T21:49:04.059Z,98791.34
2022-08-12T21:51:48.920Z,98791.34
2022-08-12T21:54:21.951Z,98791.34
2022-08-12T21:56:53.694Z,98788.66
2022-08-12T21:59:20.428Z,98797.53
2022-08-12T22:01:50.013Z,98799.94
2022-08-12T22:04:52.489Z,98796.69
2022-08-12T22:07:19.326Z,98797.25
2022-08-12T22:09:56.976Z,98795.38
2022-08-12T22:12:32.956Z,98794.84
2022-08-12T22:14:59.525Z,98796.16
2022-08-12T22:17:49.453Z,98803.94
2022-08-12T22:20:17.260Z,98807.94
2022-08-12T22:22:53.624Z,98809.28
2022-08-12T22:25:24.251Z,98808.22
2022-08-12T22:28:11.617Z,98807.69
2022-08-12T22:30:56.548Z,98812.22
2022-08-12T22:33:23.053Z,98805.81
2022-08-12T22:35:59.142Z,98804.19
2022-08-12T22:38:28.939Z,98798.06
2022-08-12T22:41:01.126Z,98798.06
2022-08-12T22:44:00.605Z,98791.34
2022-08-12T22:46:32.576Z,98793.50
2022-08-12T22:48:59.127Z,98792.69
2022-08-12T22:51:26.472Z,98792.69
2022-08-12T22:53:55.547Z,98792.69
2022-08-12T22:56:30.897Z,98791.91
2022-08-12T22:59:02.618Z,98786.53
2022-08-12T23:01:52.176Z,98786.81
2022-08-12T23:04:26.247Z,98779.59
2022-08-12T23:06:57.125Z,98785.75
2022-08-12T23:09:26.419Z,98788.41
2022-08-12T23:12:01.686Z,98784.94
2022-08-12T23:14:32.660Z,98780.63
2022-08-12T23:16:59.151Z,98767.03
2022-08-12T23:19:38.025Z,98776.66
2022-08-12T23:23:05.767Z,98783.06
2022-08-12T23:24:56.357Z,98775.28
2022-08-12T23:27:52.073Z,98774.50
2022-08-12T23:30:32.294Z,98767.53
2022-08-12T23:33:20.045Z,98780.66
2022-08-12T23:35:59.007Z,98782.81
2022-08-12T23:38:31.554Z,98775.84
2022-08-12T23:41:00.002Z,98778.53
2022-08-12T23:43:39.146Z,98775.84
2022-08-12T23:46:08.504Z,98775.84
2022-08-12T23:48:35.524Z,98776.66
2022-08-12T23:51:03.967Z,98771.53
2022-08-12T23:53:55.447Z,98768.63
2022-08-12T23:56:23.555Z,98771.31
2022-08-12T23:58:52.652Z,98756.56
